createdAt,value
2022-09-18T00:01:45.946Z,10.18
2022-09-18T00:04:16.139Z,10.13
2022-09-18T00:06:45.843Z,12.32
2022-09-18T00:09:15.969Z,13.40
2022-09-18T00:11:46.373Z,8.00
2022-09-18T00:14:16.720Z,15.38
2022-09-18T00:16:47.132Z,10.10
2022-09-18T00:19:20.723Z,8.68
2022-09-18T00:21:51.432Z,9.57
2022-09-18T00:24:20.087Z,8.95
2022-09-18T00:26:48.844Z,11.77
2022-09-18T00:29:18.243Z,10.07
2022-09-18T00:31:46.879Z,10.15
2022-09-18T00:34:16.104Z,13.32
2022-09-18T00:36:44.455Z,12.85
2022-09-18T00:39:12.187Z,13.40
2022-09-18T00:41:42.746Z,11.30
2022-09-18T00:44:35.686Z,10.02
2022-09-18T00:47:08.439Z,8.85
2022-09-18T00:49:44.789Z,11.07
2022-09-18T00:52:14.700Z,15.35
2022-09-18T00:54:51.057Z,11.40
2022-09-18T00:57:24.254Z,11.02
2022-09-18T00:59:53.395Z,9.23
2022-09-18T01:02:22.315Z,11.90
2022-09-18T01:04:59.641Z,10.85
2022-09-18T01:07:49.415Z,8.65
2022-09-18T01:10:28.548Z,11.18
2022-09-18T01:13:12.928Z,8.48
2022-09-18T01:16:05.204Z,12.63
2022-09-18T01:18:49.358Z,14.30
2022-09-18T01:21:34.100Z,11.30
2022-09-18T01:24:19.006Z,11.55
2022-09-18T01:27:02.297Z,10.30
2022-09-18T01:29:55.750Z,9.00
2022-09-18T01:32:29.362Z,8.25
2022-09-18T01:38:48.747Z,12.43
2022-09-18T01:41:25.028Z,8.88
2022-09-18T01:44:14.918Z,12.05
2022-09-18T01:46:50.803Z,10.35
2022-09-18T01:49:25.822Z,9.27
2022-09-18T01:52:02.974Z,9.30
2022-09-18T01:54:48.532Z,9.93
2022-09-18T01:57:29.378Z,11.35
2022-09-18T02:00:30.718Z,8.73
2022-09-18T02:03:23.248Z,12.57
2022-09-18T02:05:57.168Z,10.07
2022-09-18T02:08:32.591Z,8.00
2022-09-18T02:11:09.889Z,7.70
2022-09-18T02:13:48.525Z,9.85
2022-09-18T02:16:37.363Z,10.55
2022-09-18T02:19:15.464Z,9.73
2022-09-18T02:21:48.399Z,8.77
2022-09-18T02:24:34.359Z,8.43
2022-09-18T02:27:03.850Z,8.93
2022-09-18T02:29:32.847Z,12.82
2022-09-18T02:32:06.174Z,8.18
2022-09-18T02:34:37.365Z,6.57
2022-09-18T02:37:13.675Z,8.00
2022-09-18T02:40:18.015Z,8.30
2022-09-18T02:43:18.921Z,9.40
2022-09-18T02:46:13.541Z,6.25
2022-09-18T02:49:01.617Z,9.40
2022-09-18T02:51:40.566Z,10.38
2022-09-18T02:54:48.655Z,9.23
2022-09-18T02:57:31.851Z,6.35
2022-09-18T03:00:01.786Z,6.28
2022-09-18T03:02:29.321Z,5.82
2022-09-18T03:04:59.420Z,9.02
2022-09-18T03:07:28.518Z,6.13
2022-09-18T03:09:55.551Z,6.07
2022-09-18T03:12:22.701Z,9.55
2022-09-18T03:14:50.835Z,8.20
2022-09-18T03:17:23.995Z,8.65
2022-09-18T03:19:51.104Z,6.55
2022-09-18T03:22:18.211Z,4.50
2022-09-18T03:24:45.245Z,5.10
2022-09-18T03:27:14.327Z,5.22
2022-09-18T03:29:46.453Z,7.20
2022-09-18T03:32:13.636Z,7.40
2022-09-18T03:34:48.026Z,7.18
2022-09-18T03:37:21.369Z,7.03
2022-09-18T03:39:48.628Z,22.42
2022-09-18T03:42:21.720Z,29.73
2022-09-18T03:44:57.811Z,7.38
2022-09-18T03:47:26.446Z,4.70
2022-09-18T03:49:53.659Z,4.97
2022-09-18T03:52:23.739Z,6.03
2022-09-18T03:54:50.764Z,7.72
2022-09-18T03:57:18.804Z,8.10
2022-09-18T03:59:45.876Z,3.75
2022-09-18T04:02:13.013Z,7.78
2022-09-18T04:04:39.994Z,9.25
2022-09-18T04:07:14.120Z,7.32
2022-09-18T04:09:42.164Z,6.38
2022-09-18T04:12:16.314Z,7.03
2022-09-18T04:14:43.344Z,5.22
2022-09-18T04:17:11.420Z,6.40
2022-09-18T04:19:39.448Z,6.03
2022-09-18T04:22:07.628Z,4.68
2022-09-18T04:24:36.527Z,4.63
2022-09-18T04:27:10.056Z,4.53
2022-09-18T04:29:44.209Z,4.95
2022-09-18T04:32:18.412Z,5.18
2022-09-18T04:34:46.473Z,5.32
2022-09-18T04:37:13.565Z,5.72
2022-09-18T04:39:40.686Z,5.82
2022-09-18T04:42:07.781Z,7.45
2022-09-18T04:44:35.877Z,7.55
2022-09-18T04:47:08.194Z,4.28
2022-09-18T04:49:35.313Z,6.18
2022-09-18T04:52:02.862Z,5.50
2022-09-18T04:54:31.264Z,4.57
2022-09-18T04:56:58.431Z,5.90
2022-09-18T04:59:25.618Z,5.32
2022-09-18T05:01:54.709Z,4.13
2022-09-18T05:04:22.817Z,4.18
2022-09-18T05:06:50.885Z,4.78
2022-09-18T05:09:17.924Z,4.43
2022-09-18T05:11:45.143Z,5.80
2022-09-18T05:14:12.221Z,5.38
2022-09-18T05:16:39.333Z,5.90
2022-09-18T05:19:30.790Z,4.30
2022-09-18T05:21:57.857Z,5.22
2022-09-18T05:24:24.976Z,4.22
2022-09-18T05:26:52.229Z,3.90
2022-09-18T05:29:20.422Z,4.78
2022-09-18T05:31:49.746Z,3.70
2022-09-18T05:34:21.860Z,3.67
2022-09-18T05:37:12.335Z,5.00
2022-09-18T05:39:39.633Z,4.75
2022-09-18T05:42:06.917Z,3.15
2022-09-18T05:44:33.888Z,4.07
2022-09-18T05:47:02.317Z,3.30
2022-09-18T05:49:29.392Z,3.50
2022-09-18T05:51:57.482Z,3.00
2022-09-18T05:54:26.539Z,3.03
2022-09-18T05:56:54.620Z,3.38
2022-09-18T05:59:22.213Z,4.30
2022-09-18T06:01:55.158Z,3.35
2022-09-18T06:04:26.339Z,4.85
2022-09-18T06:06:54.414Z,3.83
2022-09-18T06:09:21.972Z,4.57
2022-09-18T06:11:50.108Z,3.20
2022-09-18T06:14:20.178Z,3.03
2022-09-18T06:16:48.917Z,2.80
2022-09-18T06:19:17.096Z,3.78
2022-09-18T06:21:44.217Z,2.42
2022-09-18T06:24:13.349Z,2.40
2022-09-18T06:26:40.388Z,2.10
2022-09-18T06:29:09.434Z,2.50
2022-09-18T06:31:37.696Z,2.90
2022-09-18T06:34:04.654Z,3.45
2022-09-18T06:36:31.689Z,2.00
2022-09-18T06:38:58.725Z,3.35
2022-09-18T06:41:25.864Z,2.13
2022-09-18T06:43:52.920Z,4.00
2022-09-18T06:46:20.032Z,2.10
2022-09-18T06:48:51.152Z,2.75
2022-09-18T06:51:18.258Z,2.72
2022-09-18T06:53:53.113Z,1.98
2022-09-18T06:56:20.080Z,1.92
2022-09-18T06:58:47.071Z,2.40
2022-09-18T07:01:18.329Z,3.72
2022-09-18T07:03:50.118Z,4.65
2022-09-18T07:06:18.554Z,2.20
2022-09-18T07:08:45.754Z,3.10
2022-09-18T07:11:20.838Z,1.80
2022-09-18T07:13:56.562Z,2.05
2022-09-18T07:16:25.906Z,1.92
2022-09-18T07:18:57.792Z,1.88
2022-09-18T07:21:29.102Z,2.65
2022-09-18T07:24:00.484Z,3.00
2022-09-18T07:26:33.568Z,1.20
2022-09-18T07:29:00.659Z,1.35
2022-09-18T07:31:28.817Z,1.27
2022-09-18T07:33:56.938Z,3.42
2022-09-18T07:36:27.061Z,1.27
2022-09-18T07:38:54.059Z,1.00
2022-09-18T07:41:24.292Z,0.90
2022-09-18T07:43:51.791Z,0.98
2022-09-18T07:46:20.103Z,1.10
2022-09-18T07:48:47.090Z,1.23
2022-09-18T07:51:14.474Z,2.15
2022-09-18T07:53:42.504Z,1.48
2022-09-18T07:56:20.908Z,2.05
2022-09-18T07:58:52.953Z,0.80
2022-09-18T08:01:21.105Z,2.10
2022-09-18T08:03:48.264Z,0.70
2022-09-18T08:06:15.466Z,0.80
2022-09-18T08:08:45.939Z,1.65
2022-09-18T08:11:13.928Z,0.70
2022-09-18T08:13:42.200Z,0.70
2022-09-18T08:16:10.262Z,0.75
2022-09-18T08:18:39.778Z,1.65
2022-09-18T08:21:10.788Z,1.15
2022-09-18T08:23:39.024Z,2.28
2022-09-18T08:26:07.180Z,1.65
2022-09-18T08:28:43.915Z,3.95
2022-09-18T08:31:11.150Z,1.27
2022-09-18T08:33:38.269Z,1.00
2022-09-18T08:36:08.104Z,0.80
2022-09-18T08:38:36.246Z,0.90
2022-09-18T08:41:59.239Z,1.02
2022-09-18T08:44:30.054Z,2.15
2022-09-18T08:47:11.948Z,1.77
2022-09-18T08:49:49.858Z,2.15
2022-09-18T08:52:23.585Z,1.13
2022-09-18T08:57:35.686Z,1.30
2022-09-18T09:00:23.251Z,1.35
2022-09-18T09:03:04.387Z,1.08
2022-09-18T09:05:43.530Z,1.10
2022-09-18T09:08:32.592Z,1.40
2022-09-18T09:11:33.548Z,1.33
2022-09-18T09:14:13.500Z,1.77
2022-09-18T09:16:48.084Z,1.40
2022-09-18T09:19:34.448Z,0.82
2022-09-18T09:22:42.485Z,0.75
2022-09-18T09:25:14.349Z,1.00
2022-09-18T09:27:49.689Z,1.67
2022-09-18T09:30:20.926Z,1.60
2022-09-18T09:33:03.313Z,1.08
2022-09-18T09:35:46.668Z,0.80
2022-09-18T09:38:41.802Z,1.10
2022-09-18T09:41:42.993Z,1.17
2022-09-18T09:44:19.328Z,0.98
2022-09-18T09:47:22.405Z,0.70
2022-09-18T09:50:22.494Z,0.63
2022-09-18T09:52:50.733Z,0.50
2022-09-18T09:55:25.167Z,1.30
2022-09-18T09:58:17.051Z,1.10
2022-09-18T10:01:06.010Z,0.60
2022-09-18T10:04:08.055Z,0.70
2022-09-18T10:07:02.091Z,0.40
2022-09-18T10:09:48.726Z,0.47
2022-09-18T10:12:29.986Z,0.55
2022-09-18T10:15:14.166Z,1.83
2022-09-18T10:17:43.283Z,0.68
2022-09-18T10:20:26.345Z,2.28
2022-09-18T10:22:59.716Z,0.87
2022-09-18T10:25:55.122Z,1.40
2022-09-18T10:28:25.874Z,1.58
2022-09-18T10:31:12.668Z,2.13
2022-09-18T10:33:47.981Z,0.90
2022-09-18T10:36:39.371Z,0.80
2022-09-18T10:39:48.034Z,0.60
2022-09-18T10:42:19.862Z,1.00
2022-09-18T10:45:03.194Z,1.30
2022-09-18T10:47:37.378Z,1.00
2022-09-18T10:50:20.809Z,1.80
2022-09-18T10:52:50.194Z,1.50
2022-09-18T10:55:29.071Z,3.25
2022-09-18T10:57:58.796Z,1.63
2022-09-18T11:00:28.190Z,2.35
2022-09-18T11:03:01.871Z,1.83
2022-09-18T11:08:16.453Z,3.78
2022-09-18T11:10:49.310Z,3.58
2022-09-18T11:13:28.890Z,3.00
2022-09-18T11:16:03.521Z,2.83
2022-09-18T11:18:33.227Z,2.60
2022-09-18T11:21:28.156Z,4.00
2022-09-18T11:24:07.471Z,5.05
2022-09-18T11:26:36.492Z,5.45
2022-09-18T11:29:18.300Z,5.22
2022-09-18T11:32:01.409Z,5.97
2022-09-18T11:34:53.283Z,4.70
2022-09-18T11:37:36.558Z,5.60
2022-09-18T11:40:15.728Z,6.00
2022-09-18T11:42:51.069Z,6.05
2022-09-18T11:45:36.958Z,8.07
2022-09-18T11:48:17.095Z,5.85
2022-09-18T11:50:45.669Z,7.10
2022-09-18T11:53:28.195Z,9.07
2022-09-18T11:56:19.496Z,7.10
2022-09-18T11:59:25.334Z,8.32
2022-09-18T12:02:45.567Z,9.70
2022-09-18T12:05:44.814Z,9.23
2022-09-18T12:08:47.715Z,10.27
2022-09-18T12:11:55.889Z,9.52
2022-09-18T12:14:33.559Z,9.25
2022-09-18T12:17:20.637Z,8.13
2022-09-18T12:19:53.820Z,11.50
2022-09-18T12:22:26.709Z,9.63
2022-09-18T12:24:55.764Z,9.90
2022-09-18T12:27:41.098Z,9.55
2022-09-18T12:30:19.329Z,12.15
2022-09-18T12:32:52.093Z,14.52
2022-09-18T12:35:46.979Z,9.30
2022-09-18T12:38:33.254Z,9.52
2022-09-18T12:41:16.049Z,7.95
2022-09-18T12:44:00.248Z,14.77
2022-09-18T12:47:03.851Z,13.48
2022-09-18T12:50:03.335Z,11.57
2022-09-18T12:53:09.073Z,10.55
2022-09-18T12:56:01.334Z,10.95
2022-09-18T12:58:47.111Z,12.00
2022-09-18T13:01:38.385Z,13.95
2022-09-18T13:04:20.869Z,12.57
2022-09-18T13:06:58.653Z,8.68
2022-09-18T13:09:34.903Z,8.95
2022-09-18T13:12:15.065Z,12.95
2022-09-18T13:14:57.266Z,10.23
2022-09-18T13:17:32.079Z,10.27
2022-09-18T13:20:07.236Z,10.45
2022-09-18T13:22:37.935Z,13.13
2022-09-18T13:25:20.413Z,8.35
2022-09-18T13:27:47.778Z,8.82
2022-09-18T13:30:22.512Z,12.13
2022-09-18T13:32:50.690Z,9.43
2022-09-18T13:35:23.842Z,12.80
2022-09-18T13:38:16.211Z,11.77
2022-09-18T13:40:48.388Z,10.32
2022-09-18T13:43:28.572Z,10.55
2022-09-18T13:46:07.491Z,11.75
2022-09-18T13:48:57.055Z,13.95
2022-09-18T13:51:32.456Z,10.38
2022-09-18T13:54:11.598Z,10.10
2022-09-18T13:57:15.388Z,8.65
2022-09-18T14:00:09.951Z,10.57
2022-09-18T14:02:39.765Z,12.45
2022-09-18T14:05:38.316Z,11.05
2022-09-18T14:08:19.327Z,11.20
2022-09-18T14:11:11.799Z,10.05
2022-09-18T14:14:11.475Z,11.50
2022-09-18T14:16:43.815Z,9.52
2022-09-18T14:19:32.656Z,6.55
2022-09-18T14:22:01.797Z,6.18
2022-09-18T14:24:50.584Z,6.90
2022-09-18T14:27:30.245Z,8.15
2022-09-18T14:30:00.054Z,4.15
2022-09-18T14:32:28.009Z,5.60
2022-09-18T14:35:18.941Z,3.83
2022-09-18T14:37:47.085Z,6.63
2022-09-18T14:40:27.655Z,4.30
2022-09-18T14:42:58.933Z,6.90
2022-09-18T14:45:31.794Z,4.97
2022-09-18T14:48:20.882Z,4.47
2022-09-18T14:50:59.777Z,7.63
2022-09-18T14:53:30.317Z,3.92
2022-09-18T14:56:11.933Z,5.70
2022-09-18T14:58:43.408Z,3.25
2022-09-18T15:01:29.675Z,5.15
2022-09-18T15:04:01.581Z,6.72
2022-09-18T15:06:45.903Z,3.85
2022-09-18T15:09:33.591Z,6.00
2022-09-18T15:12:04.410Z,5.63
2022-09-18T15:14:45.415Z,2.83
2022-09-18T15:17:22.862Z,4.13
2022-09-18T15:20:14.042Z,4.90
2022-09-18T15:22:41.492Z,6.10
2022-09-18T15:25:16.538Z,7.55
2022-09-18T15:27:45.171Z,14.07
2022-09-18T15:30:29.856Z,13.43
2022-09-18T15:33:04.511Z,7.13
2022-09-18T15:35:47.692Z,6.95
2022-09-18T15:38:20.225Z,4.33
2022-09-18T15:40:47.867Z,5.63
2022-09-18T15:43:30.162Z,10.68
2022-09-18T15:46:06.157Z,5.72
2022-09-18T15:48:45.903Z,3.92
2022-09-18T15:51:18.897Z,4.45
2022-09-18T15:54:23.637Z,5.75
2022-09-18T15:57:01.084Z,4.65
2022-09-18T15:59:40.834Z,4.30
2022-09-18T16:02:27.811Z,3.92
2022-09-18T16:05:07.445Z,3.65
2022-09-18T16:07:34.706Z,4.72
2022-09-18T16:10:26.864Z,4.90
2022-09-18T16:12:55.849Z,4.15
2022-09-18T16:15:24.454Z,6.55
2022-09-18T16:17:58.385Z,5.32
2022-09-18T16:20:33.864Z,5.78
2022-09-18T16:23:06.106Z,9.98
2022-09-18T16:25:38.156Z,7.97
2022-09-18T16:28:19.892Z,5.90
2022-09-18T16:30:47.718Z,6.28
2022-09-18T16:33:22.859Z,4.85
2022-09-18T16:36:22.614Z,5.30
2022-09-18T16:39:02.138Z,8.75
2022-09-18T16:41:30.869Z,7.85
2022-09-18T16:44:04.487Z,7.38
2022-09-18T16:49:13.884Z,3.97
2022-09-18T16:51:41.097Z,5.70
2022-09-18T16:54:14.147Z,5.88
2022-09-18T16:56:51.924Z,5.03
2022-09-18T16:59:30.240Z,8.70
2022-09-18T17:02:04.755Z,6.93
2022-09-18T17:04:34.509Z,6.90
2022-09-18T17:07:03.216Z,7.50
2022-09-18T17:09:33.991Z,6.68
2022-09-18T17:12:03.662Z,6.63
2022-09-18T17:14:31.055Z,5.43
2022-09-18T17:16:59.183Z,4.97
2022-09-18T17:19:29.321Z,6.40
2022-09-18T17:21:57.246Z,6.20
2022-09-18T17:24:28.243Z,5.13
2022-09-18T17:26:55.843Z,4.03
2022-09-18T17:29:23.207Z,6.50
2022-09-18T17:31:52.815Z,6.25
2022-09-18T17:34:27.569Z,9.65
2022-09-18T17:36:55.090Z,11.15
2022-09-18T17:39:23.436Z,13.05
2022-09-18T17:41:51.982Z,16.20
2022-09-18T17:44:20.885Z,22.17
2022-09-18T17:46:51.880Z,51.08
2022-09-18T17:49:20.163Z,39.58
2022-09-18T17:51:49.381Z,20.60
2022-09-18T17:54:19.527Z,10.65
2022-09-18T17:56:48.740Z,9.48
2022-09-18T17:59:18.766Z,6.55
2022-09-18T18:01:47.389Z,8.75
2022-09-18T18:04:15.342Z,6.38
2022-09-18T18:06:43.627Z,5.57
2022-09-18T18:09:10.873Z,5.72
2022-09-18T18:11:38.430Z,6.18
2022-09-18T18:14:06.044Z,3.45
2022-09-18T18:16:34.727Z,12.82
2022-09-18T18:19:05.772Z,8.63
2022-09-18T18:21:34.195Z,4.43
2022-09-18T18:24:07.294Z,3.53
2022-09-18T18:26:38.105Z,6.68
2022-09-18T18:29:11.643Z,7.47
2022-09-18T18:31:40.958Z,10.00
2022-09-18T18:34:11.304Z,13.13
2022-09-18T18:36:40.507Z,27.85
2022-09-18T18:39:12.628Z,39.80
2022-09-18T18:41:41.466Z,44.17
2022-09-18T18:44:08.709Z,22.48
2022-09-18T18:46:37.253Z,6.57
2022-09-18T18:49:09.965Z,6.35
2022-09-18T18:51:48.035Z,5.60
2022-09-18T18:54:21.217Z,15.70
2022-09-18T18:56:49.400Z,11.27
2022-09-18T18:59:18.603Z,9.68
2022-09-18T19:01:56.896Z,10.48
2022-09-18T19:04:24.528Z,4.63
2022-09-18T19:06:52.825Z,4.32
2022-09-18T19:09:25.102Z,5.38
2022-09-18T19:11:57.969Z,7.20
2022-09-18T19:14:32.360Z,4.95
2022-09-18T19:17:00.618Z,5.28
2022-09-18T19:19:29.603Z,2.78
2022-09-18T19:22:00.239Z,3.92
2022-09-18T19:24:28.260Z,7.82
2022-09-18T19:26:55.808Z,5.72
2022-09-18T19:29:23.893Z,6.18
2022-09-18T19:31:51.292Z,6.30
2022-09-18T19:34:20.833Z,5.50
2022-09-18T19:36:49.441Z,7.45
2022-09-18T19:39:19.623Z,3.83
2022-09-18T19:41:56.471Z,6.43
2022-09-18T19:44:32.002Z,3.40
2022-09-18T19:47:03.682Z,6.68
2022-09-18T19:49:37.509Z,6.50
2022-09-18T19:52:18.372Z,3.58
2022-09-18T19:54:51.420Z,6.50
2022-09-18T19:57:20.605Z,5.07
2022-09-18T19:59:55.533Z,3.85
2022-09-18T20:02:24.375Z,12.32
2022-09-18T20:04:52.428Z,35.80
2022-09-18T20:07:20.927Z,83.18
2022-09-18T20:09:48.988Z,26.15
2022-09-18T20:12:18.378Z,9.93
2022-09-18T20:14:58.739Z,17.02
2022-09-18T20:17:32.008Z,5.82
2022-09-18T20:19:59.842Z,7.85
2022-09-18T20:22:30.135Z,4.38
2022-09-18T20:25:00.261Z,6.35
2022-09-18T20:27:27.750Z,6.25
2022-09-18T20:29:56.750Z,5.72
2022-09-18T20:32:25.968Z,7.78
2022-09-18T20:35:13.723Z,4.45
2022-09-18T20:37:47.444Z,6.15
2022-09-18T20:43:07.018Z,4.47
2022-09-18T20:45:35.135Z,5.50
2022-09-18T20:48:09.990Z,5.20
2022-09-18T20:51:13.727Z,5.38
2022-09-18T20:53:45.481Z,5.15
2022-09-18T20:56:15.846Z,4.68
2022-09-18T20:58:43.896Z,4.00
2022-09-18T21:01:20.640Z,5.07
2022-09-18T21:04:01.073Z,4.63
2022-09-18T21:06:36.371Z,4.22
2022-09-18T21:09:10.282Z,3.65
2022-09-18T21:11:43.554Z,4.57
2022-09-18T21:15:10.291Z,3.17
2022-09-18T21:17:54.371Z,4.85
2022-09-18T21:20:44.042Z,2.95
2022-09-18T21:23:31.000Z,3.70
2022-09-18T21:25:58.144Z,4.13
2022-09-18T21:28:25.686Z,4.28
2022-09-18T21:31:08.480Z,3.25
2022-09-18T21:33:55.466Z,4.07
2022-09-18T21:36:39.018Z,5.40
2022-09-18T21:39:10.194Z,3.58
2022-09-18T21:41:46.609Z,3.85
2022-09-18T21:44:27.372Z,4.35
2022-09-18T21:46:59.145Z,3.50
2022-09-18T21:50:03.516Z,4.22
2022-09-18T21:52:44.524Z,3.55
2022-09-18T21:55:22.913Z,3.33
2022-09-18T21:57:56.039Z,4.47
2022-09-18T22:00:28.214Z,2.67
2022-09-18T22:02:55.263Z,1.67
2022-09-18T22:05:29.674Z,2.58
2022-09-18T22:08:00.141Z,1.63
2022-09-18T22:10:45.896Z,1.58
2022-09-18T22:13:34.865Z,4.07
2022-09-18T22:16:02.082Z,4.10
2022-09-18T22:18:35.929Z,2.67
2022-09-18T22:21:04.583Z,4.45
2022-09-18T22:23:32.722Z,2.03
2022-09-18T22:26:07.382Z,2.15
2022-09-18T22:28:42.680Z,4.40
2022-09-18T22:31:23.177Z,2.72
2022-09-18T22:34:15.249Z,2.67
2022-09-18T22:36:47.856Z,2.85
2022-09-18T22:39:16.584Z,2.20
2022-09-18T22:41:45.110Z,1.60
2022-09-18T22:44:21.644Z,2.45
2022-09-18T22:46:56.805Z,4.30
2022-09-18T22:49:39.066Z,2.58
2022-09-18T22:52:23.226Z,4.07
2022-09-18T22:54:54.341Z,3.00
2022-09-18T22:57:39.707Z,2.60
2022-09-18T23:00:55.088Z,2.53
2022-09-18T23:03:30.336Z,1.90
2022-09-18T23:06:06.691Z,4.30
2022-09-18T23:08:35.792Z,3.80
2022-09-18T23:11:16.936Z,2.05
2022-09-18T23:13:51.832Z,1.98
2022-09-18T23:16:20.378Z,4.22
2022-09-18T23:18:56.813Z,2.88
2022-09-18T23:21:29.189Z,3.65
2022-09-18T23:24:01.486Z,3.63
2022-09-18T23:26:32.767Z,2.10
2022-09-18T23:29:01.631Z,3.38
2022-09-18T23:31:32.161Z,3.55
2022-09-18T23:34:03.921Z,3.95
2022-09-18T23:36:36.058Z,1.63
2022-09-18T23:39:15.165Z,2.60
2022-09-18T23:41:42.827Z,1.75
2022-09-18T23:44:18.796Z,2.30
2022-09-18T23:46:49.660Z,3.15
2022-09-18T23:49:27.170Z,3.67
2022-09-18T23:51:55.491Z,3.22
2022-09-18T23:54:35.824Z,2.13
2022-09-18T23:57:04.077Z,2.28
2022-09-18T23:59:33.130Z,2.92
